PABR METAR and TAF weather

Enter ICAO airport designator
Station Type Date Time Source
PABR METAR 2019/06/18 14:53 UTC NOAA

PABR 181453Z 18005KT 10SM CLR 03/02 A3007 RMK AO2 SLP182 T00280017 58003 $


Station Type Date Time Source
PABR Decoded METAR 2019/06/18 14:53 UTC NOAA

POST ROGERS MEMORIAL AIRPORT, AK, United States (PABR) 71-17N 156-46W 10M
Jun 18, 2019 - 10:53 AM EDT / 2019.06.18 1453 UTC
Wind: from the S (180 degrees) at 6 MPH (5 KT):0
Visibility: 10 mile(s):0
Sky conditions: clear
Temperature: 37.0 F (2.8 C)
Dew Point: 35.1 F (1.7 C)
Relative Humidity: 92%
Pressure (altimeter): 30.07 in. Hg (1018 hPa)
Pressure tendency: 0.01 inches (0.3 hPa) lower than three hours ago
ob: PABR 181453Z 18005KT 10SM CLR 03/02 A3007 RMK AO2 SLP182 T00280017 58003
cycle: 15

Station Type Date Time Source
PABR TAF 2019/06/18 12:42 UTC NOAA

TAF PABR 181139Z 1812/1912 16006KT 1SM BR SCT001
FM181400 30008KT P6SM SCT050
FM190200 35007KT P6SM BKN005
FM190800 06007KT 1SM BR OVC003

Example: see airport list